Time;durP1;ratioP1;P1;durP2;ratioP2;P2;SDS_P1;SDS_P2;PMS_P1;PMS_P2;Temp;Humidity;BMP_temperature;BMP_pressure;BME280_temperature;BME280_humidity;BME280_pressure;Samples;Min_cycle;Max_cycle;Signal;HPM_P1;HPM_P2
2023/03/12 00:00:35;;;;;;;0.80;0.80;;;0.50;99.90;;;;;;5041221;28;20044;-78
2023/03/12 00:03:01;;;;;;;0.80;0.80;;;0.60;99.90;;;;;;5060598;28;20043;-78
2023/03/12 00:05:27;;;;;;;0.80;0.80;;;0.40;99.90;;;;;;5051197;28;20109;-78
2023/03/12 00:07:52;;;;;;;0.70;0.70;;;0.40;99.90;;;;;;5057908;28;20463;-78
2023/03/12 00:10:19;;;;;;;0.80;0.80;;;0.50;99.90;;;;;;5072649;28;20082;-78
2023/03/12 00:12:45;;;;;;;0.80;0.80;;;0.50;99.90;;;;;;5074186;28;20040;-78
2023/03/12 00:15:11;;;;;;;0.80;0.80;;;0.50;99.90;;;;;;5074278;28;20146;-78
2023/03/12 00:17:37;;;;;;;0.70;0.70;;;0.50;99.90;;;;;;5074776;28;20726;-78
2023/03/12 00:20:05;;;;;;;0.80;0.80;;;0.40;99.90;;;;;;5066398;28;20044;-78
2023/03/12 00:22:31;;;;;;;0.80;0.80;;;0.50;99.90;;;;;;5058422;28;20052;-77
2023/03/12 00:24:57;;;;;;;0.80;0.80;;;0.50;99.90;;;;;;5072000;28;20048;-77
2023/03/12 00:27:24;;;;;;;0.75;0.75;;;0.40;99.90;;;;;;5074410;28;20072;-78
2023/03/12 00:29:50;;;;;;;0.80;0.80;;;0.30;99.90;;;;;;5071643;28;20501;-77
2023/03/12 00:32:16;;;;;;;0.80;0.80;;;0.30;99.90;;;;;;5076428;28;20063;-77
2023/03/12 00:34:42;;;;;;;0.80;0.80;;;0.30;99.90;;;;;;5076045;28;20059;-77
2023/03/12 00:37:08;;;;;;;0.70;0.70;;;0.10;99.90;;;;;;5075538;28;20080;-78
2023/03/12 00:39:37;;;;;;;0.80;0.80;;;0.20;99.90;;;;;;5038932;28;20135;-77
2023/03/12 00:42:03;;;;;;;0.80;0.80;;;0.10;99.90;;;;;;5062991;28;20144;-78
2023/03/12 00:44:28;;;;;;;0.80;0.80;;;0.20;99.90;;;;;;5073311;28;20134;-77
2023/03/12 00:46:54;;;;;;;0.80;0.80;;;0.20;99.90;;;;;;5058041;28;20083;-78
2023/03/12 00:49:20;;;;;;;0.80;0.80;;;0.20;99.90;;;;;;5055526;28;20063;-77
2023/03/12 00:51:45;;;;;;;0.80;0.80;;;0.30;99.90;;;;;;5060268;28;20140;-78
2023/03/12 00:54:11;;;;;;;0.90;0.90;;;0.20;99.90;;;;;;5043208;28;20110;-77
2023/03/12 00:56:36;;;;;;;0.80;0.80;;;0.20;99.90;;;;;;5063579;28;20044;-77
2023/03/12 00:59:02;;;;;;;0.80;0.80;;;0.20;99.90;;;;;;5049421;28;20063;-77
2023/03/12 01:01:28;;;;;;;0.80;0.80;;;0.10;99.90;;;;;;5071993;28;20071;-77
2023/03/12 01:03:54;;;;;;;0.80;0.80;;;0.10;99.90;;;;;;5074420;28;20066;-77
2023/03/12 01:06:20;;;;;;;0.80;0.80;;;-0.10;99.90;;;;;;5076274;28;20520;-77
2023/03/12 01:08:46;;;;;;;0.90;0.90;;;0.10;99.90;;;;;;5058562;28;20162;-77
2023/03/12 01:11:13;;;;;;;0.80;0.80;;;0.00;99.90;;;;;;5073666;28;20119;-77
2023/03/12 01:13:39;;;;;;;0.80;0.80;;;0.00;99.90;;;;;;5074903;28;20075;-77
2023/03/12 01:16:05;;;;;;;0.80;0.80;;;-0.10;99.90;;;;;;5077942;28;20071;-77
2023/03/12 01:18:31;;;;;;;0.80;0.80;;;0.10;99.90;;;;;;5076221;28;20127;-77
2023/03/12 01:20:58;;;;;;;0.80;0.80;;;0.00;99.90;;;;;;5068921;28;20162;-77
2023/03/12 01:23:24;;;;;;;0.80;0.80;;;0.10;99.90;;;;;;5059833;28;20801;-77
2023/03/12 01:25:51;;;;;;;0.80;0.80;;;0.00;99.90;;;;;;5042896;28;20079;-77
2023/03/12 01:28:17;;;;;;;0.80;0.80;;;0.00;99.90;;;;;;5045462;28;20598;-77
2023/03/12 01:30:43;;;;;;;0.85;0.85;;;0.00;99.90;;;;;;5038946;28;21191;-77
2023/03/12 01:33:09;;;;;;;0.80;0.80;;;0.10;99.90;;;;;;5060266;28;20044;-77
2023/03/12 01:35:37;;;;;;;0.90;0.90;;;0.00;99.90;;;;;;5058272;28;20036;-77
2023/03/12 01:38:03;;;;;;;0.90;0.90;;;0.10;99.90;;;;;;5043227;28;20673;-77
2023/03/12 01:40:31;;;;;;;0.80;0.80;;;0.20;99.90;;;;;;5059589;28;20729;-77
2023/03/12 01:42:58;;;;;;;0.88;0.88;;;0.10;99.90;;;;;;5064142;28;20052;-77
2023/03/12 01:46:11;;;;;;;0.80;0.80;;;0.30;99.90;;;;;;5051999;28;20103;-77
2023/03/12 01:48:43;;;;;;;0.80;0.80;;;0.20;99.90;;;;;;5024114;28;20489;-77
2023/03/12 01:51:12;;;;;;;0.80;0.80;;;0.30;99.90;;;;;;5062923;28;20118;-77
2023/03/12 01:53:41;;;;;;;0.80;0.80;;;0.20;99.90;;;;;;5065326;28;20482;-77
2023/03/12 01:56:08;;;;;;;0.80;0.80;;;0.20;99.90;;;;;;5065548;28;20501;-77
2023/03/12 01:58:38;;;;;;;0.80;0.80;;;0.30;99.90;;;;;;5049800;28;20067;-77
2023/03/12 02:01:04;;;;;;;0.90;0.90;;;0.30;99.90;;;;;;5043347;28;20105;-77
2023/03/12 02:03:31;;;;;;;0.85;0.85;;;0.40;99.90;;;;;;5050735;28;20047;-77
2023/03/12 02:06:05;;;;;;;0.90;0.90;;;0.40;99.90;;;;;;5049808;28;20521;-77
2023/03/12 02:08:35;;;;;;;0.80;0.80;;;0.60;99.90;;;;;;5051342;28;20205;-77
2023/03/12 02:11:01;;;;;;;0.80;0.80;;;0.50;99.90;;;;;;5044046;28;20043;-77
2023/03/12 02:13:27;;;;;;;0.80;0.80;;;0.50;99.90;;;;;;5048315;28;20100;-77
2023/03/12 02:15:53;;;;;;;0.90;0.90;;;0.60;99.90;;;;;;5031558;28;20941;-77
2023/03/12 02:18:20;;;;;;;0.82;0.82;;;0.60;99.90;;;;;;5066000;28;20043;-77
2023/03/12 02:21:17;;;;;;;0.90;0.90;;;0.70;99.90;;;;;;5055554;28;20078;-77
2023/03/12 02:24:00;;;;;;;0.80;0.80;;;0.70;99.90;;;;;;5047397;28;20047;-77
2023/03/12 02:26:28;;;;;;;0.80;0.80;;;0.70;99.90;;;;;;5062731;28;20071;-77
2023/03/12 02:28:55;;;;;;;0.80;0.80;;;0.70;99.90;;;;;;5048835;28;20048;-77
2023/03/12 02:31:24;;;;;;;0.80;0.80;;;0.80;99.90;;;;;;5046762;28;20044;-77
2023/03/12 02:33:52;;;;;;;0.90;0.90;;;0.80;99.90;;;;;;5068026;28;20642;-77
2023/03/12 02:36:19;;;;;;;0.80;0.80;;;0.80;99.90;;;;;;5064313;28;20252;-77
2023/03/12 02:38:47;;;;;;;0.90;0.90;;;0.80;99.90;;;;;;5048594;28;20054;-77
2023/03/12 02:41:27;;;;;;;0.80;0.80;;;0.80;99.90;;;;;;5046174;28;20048;-77
2023/03/12 02:44:12;;;;;;;0.90;0.90;;;0.80;99.90;;;;;;5068648;28;20051;-77
2023/03/12 02:46:41;;;;;;;0.80;0.80;;;0.80;99.90;;;;;;5049824;28;20044;-77
2023/03/12 02:49:08;;;;;;;0.80;0.80;;;0.80;99.90;;;;;;5047364;28;20098;-77
2023/03/12 02:51:34;;;;;;;0.80;0.80;;;0.80;99.90;;;;;;5057850;28;20125;-77
2023/03/12 02:53:59;;;;;;;0.80;0.80;;;0.80;99.90;;;;;;5071807;28;20551;-77
2023/03/12 02:56:27;;;;;;;0.80;0.80;;;0.80;99.90;;;;;;5075163;28;20082;-77
2023/03/12 02:58:53;;;;;;;0.85;0.85;;;0.80;99.90;;;;;;5054657;28;20039;-77
2023/03/12 03:01:19;;;;;;;0.80;0.80;;;0.80;99.90;;;;;;5038875;28;20116;-77
2023/03/12 03:03:46;;;;;;;0.80;0.80;;;0.80;99.90;;;;;;5072013;28;20215;-77
2023/03/12 03:06:11;;;;;;;0.80;0.80;;;0.80;99.90;;;;;;5070126;28;21854;-77
2023/03/12 03:08:37;;;;;;;0.80;0.80;;;0.70;99.90;;;;;;5075919;28;20043;-77
2023/03/12 03:11:04;;;;;;;0.80;0.80;;;0.70;99.90;;;;;;5075362;28;20047;-77
2023/03/12 03:13:30;;;;;;;0.80;0.80;;;0.70;99.90;;;;;;5076557;28;20036;-77
2023/03/12 03:16:00;;;;;;;0.90;0.90;;;0.80;99.90;;;;;;5068983;28;20140;-77
2023/03/12 03:18:27;;;;;;;0.80;0.80;;;0.80;99.90;;;;;;5076853;28;20040;-77
2023/03/12 03:21:05;;;;;;;0.80;0.80;;;0.80;99.90;;;;;;5069059;28;20048;-77
2023/03/12 03:23:31;;;;;;;0.80;0.80;;;0.80;99.90;;;;;;5058089;28;20061;-77
2023/03/12 03:25:58;;;;;;;0.80;0.80;;;0.90;99.90;;;;;;5077457;28;20564;-77
2023/03/12 03:28:26;;;;;;;0.80;0.80;;;0.80;99.90;;;;;;5060356;28;20076;-77
2023/03/12 03:30:54;;;;;;;0.80;0.80;;;0.90;99.90;;;;;;5055017;28;20044;-77
2023/03/12 03:33:20;;;;;;;0.80;0.80;;;0.90;99.90;;;;;;5054528;28;20838;-77
2023/03/12 03:35:47;;;;;;;0.80;0.80;;;0.90;99.90;;;;;;5055370;28;20455;-77
2023/03/12 03:38:12;;;;;;;0.80;0.80;;;0.80;99.90;;;;;;5077732;28;20478;-77
2023/03/12 03:40:38;;;;;;;0.80;0.80;;;0.90;99.90;;;;;;5054315;28;20055;-77
2023/03/12 03:43:04;;;;;;;0.80;0.80;;;0.80;99.90;;;;;;5074605;28;20051;-77
2023/03/12 03:45:29;;;;;;;0.80;0.80;;;0.80;99.90;;;;;;5077475;28;20044;-77
2023/03/12 03:47:55;;;;;;;0.80;0.80;;;0.80;99.90;;;;;;5074106;28;20052;-77
2023/03/12 03:50:21;;;;;;;0.80;0.80;;;0.80;99.90;;;;;;5073400;28;20693;-77
2023/03/12 03:52:46;;;;;;;0.80;0.80;;;0.90;99.90;;;;;;5056511;28;20047;-77
2023/03/12 03:55:12;;;;;;;0.80;0.80;;;0.90;99.90;;;;;;5076975;28;20047;-77
2023/03/12 03:57:38;;;;;;;0.80;0.80;;;0.90;99.90;;;;;;5058915;28;20067;-77
2023/03/12 04:00:08;;;;;;;0.80;0.80;;;1.00;99.90;;;;;;5037944;28;20075;-77
2023/03/12 04:02:34;;;;;;;0.80;0.80;;;0.90;99.90;;;;;;5059710;28;20044;-77
2023/03/12 04:05:00;;;;;;;0.90;0.90;;;0.90;99.90;;;;;;5078046;28;20096;-77
2023/03/12 04:07:27;;;;;;;0.80;0.80;;;0.90;99.90;;;;;;5059634;28;20497;-77
2023/03/12 04:09:53;;;;;;;0.80;0.80;;;0.90;99.90;;;;;;5074636;28;20055;-77
2023/03/12 04:12:20;;;;;;;0.80;0.80;;;0.90;99.90;;;;;;5076623;28;20078;-77
2023/03/12 04:14:45;;;;;;;0.80;0.80;;;1.00;99.90;;;;;;5061116;28;20071;-77
2023/03/12 04:17:11;;;;;;;0.80;0.80;;;0.90;99.90;;;;;;5042850;28;20716;-77
2023/03/12 04:19:37;;;;;;;0.80;0.80;;;1.00;99.90;;;;;;5072444;28;20044;-77
2023/03/12 04:22:03;;;;;;;0.80;0.80;;;0.90;99.90;;;;;;5070944;28;20048;-77
2023/03/12 04:24:29;;;;;;;0.80;0.80;;;0.90;99.90;;;;;;5058895;28;20044;-77
2023/03/12 04:26:56;;;;;;;0.82;0.82;;;0.90;99.90;;;;;;5075321;28;20487;-77
2023/03/12 04:29:22;;;;;;;0.80;0.80;;;0.90;99.90;;;;;;5073750;28;20040;-77
2023/03/12 04:31:48;;;;;;;0.80;0.80;;;1.00;99.90;;;;;;5073139;28;20560;-77
2023/03/12 04:34:13;;;;;;;0.80;0.80;;;1.00;99.90;;;;;;5058935;28;20052;-76
2023/03/12 04:36:39;;;;;;;0.80;0.80;;;1.00;99.90;;;;;;5074687;28;20051;-77
2023/03/12 04:39:08;;;;;;;0.80;0.80;;;0.90;99.90;;;;;;5054913;28;20695;-77
2023/03/12 04:41:34;;;;;;;0.80;0.80;;;1.00;99.90;;;;;;5056978;28;20051;-77
2023/03/12 04:44:01;;;;;;;0.80;0.80;;;0.90;99.90;;;;;;5054633;28;20055;-77
2023/03/12 04:46:26;;;;;;;0.80;0.80;;;1.00;99.90;;;;;;5058101;28;20055;-77
2023/03/12 04:48:52;;;;;;;0.80;0.80;;;1.00;99.90;;;;;;5075063;28;20036;-77
2023/03/12 04:51:18;;;;;;;0.80;0.80;;;1.00;99.90;;;;;;5052728;28;20901;-77
2023/03/12 04:53:44;;;;;;;0.80;0.80;;;1.00;99.90;;;;;;5057761;28;20067;-77
2023/03/12 04:56:10;;;;;;;0.85;0.85;;;1.00;99.90;;;;;;5054071;28;20186;-77
2023/03/12 04:58:36;;;;;;;0.80;0.80;;;1.00;99.90;;;;;;5056946;28;20036;-77
2023/03/12 05:01:02;;;;;;;0.80;0.80;;;1.00;99.90;;;;;;5051989;28;20684;-77
2023/03/12 05:03:28;;;;;;;0.90;0.90;;;1.10;99.90;;;;;;5074241;28;20072;-76
2023/03/12 05:05:54;;;;;;;0.80;0.80;;;1.10;99.90;;;;;;5072893;28;20044;-77
2023/03/12 05:08:19;;;;;;;0.80;0.80;;;1.10;99.90;;;;;;5070319;28;20041;-77
2023/03/12 05:10:45;;;;;;;0.80;0.80;;;1.10;99.90;;;;;;5069427;28;20071;-77
2023/03/12 05:13:19;;;;;;;0.80;0.80;;;1.10;99.90;;;;;;5077626;28;20047;-77
2023/03/12 05:15:47;;;;;;;0.80;0.80;;;1.20;99.90;;;;;;5057900;28;20040;-77
2023/03/12 05:18:13;;;;;;;0.80;0.80;;;1.20;99.90;;;;;;5058575;28;20051;-77
2023/03/12 05:20:38;;;;;;;0.80;0.80;;;1.10;99.90;;;;;;5070423;28;20032;-77
2023/03/12 05:23:04;;;;;;;0.80;0.80;;;1.20;99.90;;;;;;5057790;28;20110;-77
2023/03/12 05:25:30;;;;;;;0.80;0.80;;;1.30;99.90;;;;;;5077158;28;20562;-77
2023/03/12 05:27:56;;;;;;;0.80;0.80;;;1.30;99.90;;;;;;5075648;28;20075;-77
2023/03/12 05:30:21;;;;;;;0.80;0.80;;;1.30;99.90;;;;;;5051265;28;20051;-77
2023/03/12 05:32:47;;;;;;;0.80;0.80;;;1.30;99.90;;;;;;5070949;28;20457;-77
2023/03/12 05:35:13;;;;;;;0.80;0.80;;;1.30;99.90;;;;;;5072319;28;20036;-78
2023/03/12 05:37:41;;;;;;;0.80;0.80;;;1.30;99.90;;;;;;5074049;28;20051;-77
2023/03/12 05:40:10;;;;;;;0.80;0.80;;;1.30;99.90;;;;;;5070646;28;20043;-77
2023/03/12 05:42:35;;;;;;;0.70;0.70;;;1.30;99.90;;;;;;5067823;28;20548;-77
2023/03/12 05:45:02;;;;;;;0.80;0.80;;;1.30;99.90;;;;;;5055009;28;20501;-77
2023/03/12 05:47:28;;;;;;;0.70;0.70;;;1.30;99.90;;;;;;5078488;28;20040;-77
2023/03/12 05:49:54;;;;;;;0.75;0.75;;;1.40;99.90;;;;;;5056218;28;20073;-77
2023/03/12 05:52:19;;;;;;;0.80;0.80;;;1.30;99.90;;;;;;5072901;28;20533;-77
2023/03/12 05:54:45;;;;;;;0.80;0.80;;;1.30;99.90;;;;;;5056824;28;20501;-77
2023/03/12 05:57:11;;;;;;;0.80;0.80;;;1.30;99.90;;;;;;5077715;28;20380;-77
2023/03/12 05:59:37;;;;;;;0.80;0.80;;;1.30;99.90;;;;;;5069937;28;20040;-77
2023/03/12 06:02:02;;;;;;;0.80;0.80;;;1.30;99.90;;;;;;5073924;28;20040;-77
2023/03/12 06:04:28;;;;;;;0.80;0.80;;;1.30;99.90;;;;;;5052483;28;20452;-77
2023/03/12 06:06:54;;;;;;;0.80;0.80;;;1.30;99.90;;;;;;5074644;28;20043;-77
2023/03/12 06:09:20;;;;;;;0.80;0.80;;;1.30;99.90;;;;;;5056942;28;20044;-77
2023/03/12 06:11:45;;;;;;;0.88;0.88;;;1.40;99.90;;;;;;5057778;28;20048;-77
2023/03/12 06:14:11;;;;;;;0.90;0.90;;;1.40;99.90;;;;;;5075904;28;20040;-77
2023/03/12 06:16:37;;;;;;;0.80;0.80;;;1.40;99.90;;;;;;5057254;28;20054;-77
2023/03/12 06:19:03;;;;;;;0.80;0.80;;;1.40;99.90;;;;;;5053367;28;20701;-77
2023/03/12 06:21:32;;;;;;;0.80;0.80;;;1.40;99.90;;;;;;5072498;28;20107;-77
2023/03/12 06:23:58;;;;;;;0.80;0.80;;;1.50;99.90;;;;;;5075441;28;20048;-77
2023/03/12 06:26:25;;;;;;;0.70;0.70;;;1.50;99.90;;;;;;5058192;28;20044;-76
2023/03/12 06:28:52;;;;;;;0.80;0.80;;;1.50;99.90;;;;;;5076792;28;20135;-77
2023/03/12 06:31:19;;;;;;;0.80;0.80;;;1.50;99.90;;;;;;5073596;28;20051;-77
2023/03/12 06:33:45;;;;;;;0.80;0.80;;;1.60;99.90;;;;;;5075282;28;20041;-75
2023/03/12 06:36:10;;;;;;;0.80;0.80;;;1.60;99.90;;;;;;5076208;28;20520;-77
2023/03/12 06:38:37;;;;;;;0.80;0.80;;;1.70;99.90;;;;;;5077306;28;20071;-77
2023/03/12 06:41:12;;;;;;;0.80;0.80;;;1.60;99.90;;;;;;5042340;28;20044;-77
2023/03/12 06:43:39;;;;;;;0.80;0.80;;;1.70;99.90;;;;;;5060225;28;20052;-77
2023/03/12 06:46:07;;;;;;;0.80;0.80;;;1.70;99.90;;;;;;5077980;28;20109;-77
2023/03/12 06:48:35;;;;;;;0.80;0.80;;;1.70;99.90;;;;;;5033961;28;20044;-77
2023/03/12 06:51:05;;;;;;;0.80;0.80;;;1.80;99.90;;;;;;5056369;28;20150;-77
2023/03/12 06:53:31;;;;;;;0.80;0.80;;;1.80;99.90;;;;;;5055584;28;20659;-77
2023/03/12 06:55:58;;;;;;;0.88;0.88;;;1.80;99.90;;;;;;5061909;28;20051;-76
2023/03/12 06:58:23;;;;;;;0.80;0.80;;;1.80;99.90;;;;;;5076068;28;20047;-77
2023/03/12 07:00:50;;;;;;;0.80;0.80;;;1.90;99.90;;;;;;5075282;28;20044;-77
2023/03/12 07:03:16;;;;;;;0.80;0.80;;;1.80;99.90;;;;;;5079023;28;20047;-77
2023/03/12 07:05:46;;;;;;;0.80;0.80;;;1.90;99.90;;;;;;5074551;28;20064;-77
2023/03/12 07:08:12;;;;;;;0.80;0.80;;;1.90;99.90;;;;;;5079334;28;20040;-77
2023/03/12 07:10:37;;;;;;;0.80;0.80;;;2.00;99.90;;;;;;5074794;28;20437;-77
2023/03/12 07:13:03;;;;;;;0.80;0.80;;;2.00;99.90;;;;;;5077756;28;20071;-77
2023/03/12 07:15:29;;;;;;;0.70;0.70;;;2.00;99.90;;;;;;5058763;28;20048;-77
2023/03/12 07:17:58;;;;;;;0.80;0.80;;;2.00;99.90;;;;;;5076335;28;20497;-76
2023/03/12 07:20:23;;;;;;;0.80;0.80;;;2.10;99.90;;;;;;5074109;28;20684;-78
2023/03/12 07:22:49;;;;;;;0.80;0.80;;;2.10;99.90;;;;;;5079130;28;20051;-77
2023/03/12 07:25:15;;;;;;;0.80;0.80;;;2.10;99.90;;;;;;5055739;28;20590;-77
2023/03/12 07:27:40;;;;;;;0.80;0.80;;;2.10;99.90;;;;;;5079552;28;20528;-78
2023/03/12 07:30:07;;;;;;;0.70;0.70;;;2.10;99.90;;;;;;5056648;28;20067;-77
2023/03/12 07:32:34;;;;;;;0.80;0.80;;;2.10;99.90;;;;;;5058800;28;20571;-77
2023/03/12 07:35:00;;;;;;;0.80;0.80;;;2.10;99.90;;;;;;5060614;28;20082;-77
2023/03/12 07:37:25;;;;;;;0.80;0.80;;;2.20;99.90;;;;;;5057186;28;20490;-77
2023/03/12 07:39:53;;;;;;;0.70;0.70;;;2.30;99.90;;;;;;5074476;28;20068;-77
2023/03/12 07:42:19;;;;;;;0.80;0.80;;;2.30;99.90;;;;;;5059319;28;20104;-77
2023/03/12 07:44:44;;;;;;;0.80;0.80;;;2.30;99.90;;;;;;5077709;28;20036;-77
2023/03/12 07:47:10;;;;;;;0.77;0.77;;;2.20;99.90;;;;;;5074993;28;20083;-77
2023/03/12 07:49:36;;;;;;;0.80;0.80;;;2.40;99.90;;;;;;5056091;28;20080;-77
2023/03/12 07:52:02;;;;;;;0.80;0.80;;;2.30;99.90;;;;;;5074628;28;20040;-77
2023/03/12 07:54:29;;;;;;;0.70;0.70;;;2.40;99.90;;;;;;5076664;28;20040;-77
2023/03/12 07:56:58;;;;;;;0.70;0.70;;;2.40;99.90;;;;;;5075242;28;20152;-77
2023/03/12 07:59:25;;;;;;;0.80;0.80;;;2.30;99.90;;;;;;5052643;28;20044;-77
2023/03/12 08:01:51;;;;;;;0.80;0.80;;;2.40;99.90;;;;;;5076811;28;20044;-77
2023/03/12 08:04:17;;;;;;;0.80;0.80;;;2.40;99.90;;;;;;5056343;28;20043;-77
2023/03/12 08:06:42;;;;;;;0.80;0.80;;;2.40;99.90;;;;;;5056525;28;20052;-77
2023/03/12 08:09:08;;;;;;;0.70;0.70;;;2.10;99.90;;;;;;5073254;28;20101;-77
2023/03/12 08:11:35;;;;;;;0.73;0.73;;;2.10;99.90;;;;;;5042012;28;20166;-77
2023/03/12 08:14:02;;;;;;;0.80;0.80;;;2.10;99.90;;;;;;5055655;28;21402;-77
2023/03/12 08:16:28;;;;;;;0.77;0.77;;;2.10;99.90;;;;;;5079282;28;20083;-77
2023/03/12 08:18:54;;;;;;;0.75;0.75;;;2.10;99.90;;;;;;5071139;28;20075;-76
2023/03/12 08:21:20;;;;;;;0.70;0.70;;;2.10;99.90;;;;;;5055178;28;20435;-75
2023/03/12 08:23:45;;;;;;;0.80;0.80;;;2.10;99.90;;;;;;5075041;28;20055;-76
2023/03/12 08:26:11;;;;;;;0.80;0.80;;;2.10;99.90;;;;;;5061584;28;20109;-76
2023/03/12 08:28:37;;;;;;;0.70;0.70;;;2.10;99.90;;;;;;5037133;28;20123;-77
2023/03/12 08:31:03;;;;;;;0.80;0.80;;;2.20;99.90;;;;;;5035587;28;20459;-77
2023/03/12 08:33:29;;;;;;;0.70;0.70;;;2.10;99.90;;;;;;5040420;28;20887;-76
2023/03/12 08:35:54;;;;;;;0.80;0.80;;;2.00;99.90;;;;;;5062879;28;20122;-77
2023/03/12 08:38:20;;;;;;;0.85;0.85;;;2.10;99.90;;;;;;5074183;28;20401;-77
2023/03/12 08:40:52;;;;;;;0.80;0.80;;;2.10;99.90;;;;;;5069297;28;20083;-77
2023/03/12 08:43:18;;;;;;;0.70;0.70;;;2.20;99.90;;;;;;5052979;28;20059;-76
2023/03/12 08:45:44;;;;;;;0.80;0.80;;;2.00;99.90;;;;;;5041956;28;20040;-77
2023/03/12 08:48:10;;;;;;;0.80;0.80;;;2.00;99.90;;;;;;5075381;28;20402;-76
2023/03/12 08:50:35;;;;;;;0.80;0.80;;;2.10;99.90;;;;;;5042005;28;20048;-77
2023/03/12 08:53:01;;;;;;;0.80;0.80;;;2.20;99.90;;;;;;5036298;28;20047;-78
2023/03/12 08:55:27;;;;;;;0.80;0.80;;;2.10;99.90;;;;;;5032402;28;20500;-77
2023/03/12 08:57:54;;;;;;;0.80;0.80;;;2.20;99.90;;;;;;5048266;28;20105;-75
2023/03/12 09:00:20;;;;;;;0.80;0.80;;;2.20;99.90;;;;;;5050569;28;20071;-76
2023/03/12 09:02:46;;;;;;;0.80;0.80;;;2.30;99.90;;;;;;5064161;28;20074;-77
2023/03/12 09:05:12;;;;;;;0.80;0.80;;;2.20;99.90;;;;;;5046513;28;20126;-77
2023/03/12 09:07:38;;;;;;;0.80;0.80;;;2.40;99.90;;;;;;5065271;28;20101;-77
2023/03/12 09:10:05;;;;;;;0.80;0.80;;;2.60;99.90;;;;;;5059964;28;20040;-78
2023/03/12 09:12:31;;;;;;;0.80;0.80;;;2.40;99.90;;;;;;5077173;28;20035;-78
2023/03/12 09:14:56;;;;;;;0.80;0.80;;;2.60;99.90;;;;;;5073398;28;20044;-77
2023/03/12 09:17:22;;;;;;;0.80;0.80;;;2.60;99.90;;;;;;5074610;28;20079;-78
2023/03/12 09:19:48;;;;;;;0.80;0.80;;;2.60;99.90;;;;;;5071058;28;20073;-77
2023/03/12 09:22:14;;;;;;;0.80;0.80;;;2.70;99.90;;;;;;5077074;28;20044;-78
2023/03/12 09:24:39;;;;;;;0.80;0.80;;;2.70;99.90;;;;;;5059338;28;20047;-77
2023/03/12 09:27:05;;;;;;;0.80;0.80;;;2.70;99.90;;;;;;5076337;28;20403;-77
2023/03/12 09:29:31;;;;;;;0.80;0.80;;;2.70;99.90;;;;;;5072242;28;20048;-78
2023/03/12 09:31:57;;;;;;;0.80;0.80;;;2.70;99.90;;;;;;5073391;28;20050;-77
2023/03/12 09:34:23;;;;;;;0.90;0.90;;;2.70;99.90;;;;;;5075669;28;20032;-77
2023/03/12 09:36:49;;;;;;;0.80;0.80;;;2.70;99.90;;;;;;5076649;28;20052;-78
2023/03/12 09:39:15;;;;;;;0.80;0.80;;;2.80;99.90;;;;;;5071526;28;20044;-78
2023/03/12 09:41:46;;;;;;;0.80;0.80;;;2.70;99.90;;;;;;5070807;28;20123;-78
2023/03/12 09:44:23;;;;;;;0.80;0.80;;;2.80;99.90;;;;;;5057502;28;20378;-78
2023/03/12 09:47:00;;;;;;;0.80;0.80;;;2.80;99.90;;;;;;5039203;28;20110;-78
2023/03/12 09:49:31;;;;;;;2.33;2.17;;;2.90;99.90;;;;;;5038221;28;20063;-78
2023/03/12 09:51:59;;;;;;;0.80;0.80;;;2.90;99.90;;;;;;5057610;28;20048;-78
2023/03/12 09:54:33;;;;;;;0.80;0.80;;;2.80;99.90;;;;;;5073007;28;20505;-77
2023/03/12 09:57:07;;;;;;;0.80;0.80;;;2.90;99.90;;;;;;5054700;28;20040;-78
2023/03/12 09:59:35;;;;;;;0.80;0.80;;;3.00;99.90;;;;;;5073454;28;20036;-79
2023/03/12 10:02:20;;;;;;;0.80;0.80;;;3.00;99.90;;;;;;5054527;28;20081;-78
2023/03/12 10:04:53;;;;;;;0.90;0.90;;;2.90;99.90;;;;;;5059493;28;21564;-78
2023/03/12 10:07:27;;;;;;;;;;;2.90;99.90;;;;;;5072810;28;20643;-78
2023/03/12 10:10:19;;;;;;;0.80;0.80;;;2.90;99.90;;;;;;5071366;28;20404;-78
2023/03/12 10:13:10;;;;;;;0.80;0.80;;;3.00;99.90;;;;;;5064941;28;20061;-78
2023/03/12 10:15:52;;;;;;;0.80;0.80;;;2.90;99.90;;;;;;5081312;28;20047;-78
2023/03/12 10:18:45;;;;;;;0.80;0.80;;;3.10;99.90;;;;;;5079239;28;20036;-78
2023/03/12 10:21:44;;;;;;;0.85;0.85;;;3.10;99.90;;;;;;5069916;28;20047;-78
2023/03/12 10:24:28;;;;;;;0.80;0.80;;;3.20;99.90;;;;;;5051183;28;20085;-78
2023/03/12 10:26:56;;;;;;;0.80;0.80;;;3.20;99.90;;;;;;5046797;28;20600;-78
2023/03/12 10:29:34;;;;;;;0.80;0.80;;;3.20;99.90;;;;;;5068243;28;20497;-79
2023/03/12 10:32:09;;;;;;;0.70;0.70;;;3.20;99.90;;;;;;5068074;28;20052;-79
2023/03/12 10:34:49;;;;;;;0.70;0.70;;;3.30;99.90;;;;;;5063124;28;20608;-78
2023/03/12 10:37:42;;;;;;;0.80;0.80;;;3.30;99.90;;;;;;5079225;28;20129;-78
2023/03/12 10:40:21;;;;;;;0.80;0.80;;;3.50;99.90;;;;;;5075278;28;20500;-78
2023/03/12 10:42:47;;;;;;;0.80;0.80;;;3.70;99.90;;;;;;5057788;28;20055;-78
2023/03/12 10:45:41;;;;;;;0.80;0.80;;;3.50;99.90;;;;;;5057741;28;20055;-78
2023/03/12 10:48:10;;;;;;;0.80;0.80;;;3.70;99.90;;;;;;5078038;28;20120;-78
2023/03/12 10:50:40;;;;;;;0.80;0.80;;;3.80;99.90;;;;;;5072748;28;20203;-77
2023/03/12 10:53:27;;;;;;;0.80;0.80;;;3.80;99.90;;;;;;5062744;28;20501;-79
2023/03/12 10:56:08;;;;;;;0.80;0.80;;;4.20;99.90;;;;;;5051915;28;20120;-78
2023/03/12 10:58:44;;;;;;;0.80;0.80;;;4.30;99.90;;;;;;5061616;28;20048;-78
2023/03/12 11:01:21;;;;;;;0.70;0.70;;;4.20;99.90;;;;;;5077298;28;20040;-78
2023/03/12 11:03:47;;;;;;;0.70;0.70;;;4.40;99.90;;;;;;5071989;28;20055;-78
2023/03/12 11:06:28;;;;;;;0.70;0.70;;;4.30;99.90;;;;;;5078343;28;20119;-79
2023/03/12 11:09:16;;;;;;;0.70;0.70;;;4.10;99.90;;;;;;5054938;28;20131;-77
2023/03/12 11:11:44;;;;;;;0.70;0.70;;;4.40;99.90;;;;;;5070480;28;20068;-79
2023/03/12 11:14:11;;;;;;;0.70;0.70;;;4.50;99.90;;;;;;5048486;28;20052;-78
2023/03/12 11:16:37;;;;;;;0.70;0.70;;;4.50;99.90;;;;;;5072484;28;20052;-78
2023/03/12 11:19:04;;;;;;;0.70;0.70;;;4.50;99.90;;;;;;5069075;28;20674;-78
2023/03/12 11:21:35;;;;;;;0.68;0.68;;;4.70;99.90;;;;;;5071460;28;20040;-78
2023/03/12 11:24:14;;;;;;;0.70;0.70;;;4.40;99.90;;;;;;5056728;28;20056;-78
2023/03/12 11:27:10;;;;;;;0.70;0.70;;;4.70;99.90;;;;;;5050268;28;20101;-78
2023/03/12 11:29:45;;;;;;;0.70;0.70;;;4.80;99.90;;;;;;5054190;28;20755;-78
2023/03/12 11:32:16;;;;;;;0.70;0.70;;;4.80;99.90;;;;;;5061814;28;20067;-78
2023/03/12 11:34:48;;;;;;;0.70;0.70;;;5.00;99.90;;;;;;5059845;28;20055;-78
2023/03/12 11:37:20;;;;;;;0.70;0.70;;;5.20;99.90;;;;;;5060314;28;20082;-76
2023/03/12 11:39:57;;;;;;;0.70;0.70;;;5.10;99.90;;;;;;5056528;28;21024;-75
2023/03/12 11:42:54;;;;;;;0.70;0.70;;;5.00;99.90;;;;;;5052054;28;20123;-75
2023/03/12 11:45:26;;;;;;;0.70;0.70;;;5.30;99.90;;;;;;5036770;28;20589;-78
2023/03/12 11:48:21;;;;;;;0.70;0.70;;;5.50;99.90;;;;;;5058738;28;20036;-79
2023/03/12 11:50:59;;;;;;;0.70;0.70;;;5.40;99.90;;;;;;5048917;28;20055;-78
2023/03/12 11:53:44;;;;;;;0.77;0.77;;;5.70;99.90;;;;;;5068567;28;20135;-78
2023/03/12 11:56:38;;;;;;;0.70;0.70;;;5.80;99.90;;;;;;5066824;28;20172;-78
2023/03/12 11:59:23;;;;;;;0.70;0.70;;;5.70;99.90;;;;;;5018780;28;20116;-78
2023/03/12 12:02:16;;;;;;;0.70;0.70;;;6.20;99.90;;;;;;5062905;28;20048;-76
2023/03/12 12:04:51;;;;;;;0.70;0.70;;;6.30;99.90;;;;;;5068153;28;20044;-78
2023/03/12 12:07:43;;;;;;;0.70;0.70;;;6.20;99.90;;;;;;5061459;28;20515;-79
2023/03/12 12:10:24;;;;;;;0.70;0.70;;;6.70;99.90;;;;;;5046750;28;20184;-78
2023/03/12 12:12:50;;;;;;;0.70;0.70;;;6.70;99.90;;;;;;5066655;28;20440;-79
2023/03/12 12:15:34;;;;;;;0.70;0.70;;;6.40;99.90;;;;;;5064032;28;20047;-79
2023/03/12 12:18:12;;;;;;;;;;;6.50;99.90;;;;;;5064864;28;20048;-78
2023/03/12 12:20:55;;;;;;;0.60;0.60;;;6.60;99.90;;;;;;5039365;28;19920;-77
2023/03/12 12:23:42;;;;;;;0.60;0.60;;;6.40;99.90;;;;;;5070330;28;20040;-76
2023/03/12 12:26:35;;;;;;;0.63;0.63;;;6.50;99.90;;;;;;5053647;28;20063;-79
2023/03/12 12:29:25;;;;;;;0.70;0.70;;;6.80;99.90;;;;;;5045739;28;20118;-77
2023/03/12 12:31:58;;;;;;;0.63;0.63;;;6.80;99.90;;;;;;5074730;28;20047;-77
2023/03/12 12:34:52;;;;;;;0.60;0.60;;;6.70;99.90;;;;;;5024815;28;20048;-78
2023/03/12 12:37:45;;;;;;;0.70;0.70;;;7.00;99.90;;;;;;5073653;28;20044;-79
2023/03/12 12:40:20;;;;;;;0.60;0.60;;;7.00;99.90;;;;;;5052046;28;20059;-79
2023/03/12 12:43:22;;;;;;;0.60;0.60;;;7.10;99.90;;;;;;5058054;28;20055;-79
2023/03/12 12:45:51;;;;;;;0.60;0.60;;;7.00;99.90;;;;;;5068925;28;20052;-79
2023/03/12 12:48:32;;;;;;;0.70;0.70;;;7.10;99.90;;;;;;5071967;28;20070;-78
2023/03/12 12:51:00;;;;;;;0.70;0.70;;;6.90;99.90;;;;;;5056936;28;20049;-79
2023/03/12 12:53:39;;;;;;;0.70;0.70;;;7.30;99.90;;;;;;5057619;28;20050;-80
2023/03/12 12:56:09;;;;;;;0.70;0.70;;;7.30;99.90;;;;;;5076311;28;20066;-79
2023/03/12 12:58:43;;;;;;;0.70;0.70;;;7.30;99.90;;;;;;5072279;28;20036;-79
2023/03/12 13:01:09;;;;;;;0.70;0.70;;;7.00;99.90;;;;;;5068544;28;20050;-80
2023/03/12 13:03:37;;;;;;;0.60;0.60;;;7.40;99.90;;;;;;5057995;28;20048;-79
2023/03/12 13:06:05;;;;;;;0.60;0.60;;;7.40;99.90;;;;;;5075720;28;20040;-79
2023/03/12 13:08:35;;;;;;;0.70;0.70;;;7.40;99.90;;;;;;5071295;28;20047;-79
2023/03/12 13:11:27;;;;;;;0.70;0.70;;;7.40;99.90;;;;;;5073953;28;20052;-79